Terminal Aerodrome Forecast
Issued by NWS Central Illinois

Home | Current Version | Previous Version | Text Only | Print | Product List | Glossary On
Versions: 1 2 3 4 5 6 7 8 9 10 11 12
000
FTUS43 KILX 012320
TAFSPI
TAF
KSPI 012320Z 0200/0224 21005KT P6SM SCT250
     FM021400 22008KT P6SM BKN250
     FM021800 22012G17KT P6SM BKN250=

USA.gov is the U.S. government's official web portal to all federal, state and local government web resources and services.